Time;durP1;ratioP1;P1;durP2;ratioP2;P2;SDS_P1;SDS_P2;PMS_P1;PMS_P2;Temp;Humidity;BMP_temperature;BMP_pressure;BME280_temperature;BME280_humidity;BME280_pressure;Samples;Min_cycle;Max_cycle;Signal;HPM_P1;HPM_P2
2021/12/18 00:00:58;;;;;;;;;;;0.70;99.90;;;;;;5013571;28;20053;-66
2021/12/18 00:03:25;;;;;;;51.92;26.48;;;0.70;99.90;;;;;;5012587;28;20551;-66
2021/12/18 00:05:52;;;;;;;44.00;24.70;;;0.70;99.90;;;;;;5013544;28;21115;-65
2021/12/18 00:08:18;;;;;;;;;;;0.70;99.90;;;;;;5013454;28;20068;-66
2021/12/18 00:10:45;;;;;;;48.10;24.88;;;0.70;99.90;;;;;;5011646;28;20368;-66
2021/12/18 00:13:13;;;;;;;51.92;26.15;;;0.70;99.90;;;;;;5013626;28;20312;-66
2021/12/18 00:15:40;;;;;;;50.38;25.83;;;0.70;99.90;;;;;;5013442;28;20053;-66
2021/12/18 00:18:07;;;;;;;49.30;26.67;;;0.70;99.90;;;;;;5007572;28;20131;-65
2021/12/18 00:20:36;;;;;;;49.75;25.80;;;0.70;99.90;;;;;;4993126;28;20046;-66
2021/12/18 00:23:04;;;;;;;48.75;24.10;;;0.60;99.90;;;;;;5008315;28;20707;-66
2021/12/18 00:25:32;;;;;;;46.22;24.73;;;0.60;99.90;;;;;;5013211;28;20111;-66
2021/12/18 00:27:59;;;;;;;56.80;29.35;;;0.60;99.90;;;;;;5013426;28;20049;-66
2021/12/18 00:30:26;;;;;;;;;;;0.70;99.90;;;;;;5013056;28;20053;-66
2021/12/18 00:32:53;;;;;;;48.00;25.27;;;0.70;99.90;;;;;;5012327;28;20326;-66
2021/12/18 00:35:20;;;;;;;53.92;27.95;;;0.70;99.90;;;;;;5017013;28;21075;-66
2021/12/18 00:37:47;;;;;;;47.85;26.70;;;0.60;99.90;;;;;;5016208;28;20076;-65
2021/12/18 00:40:24;;;;;;;;;;;0.60;99.90;;;;;;5017166;28;20123;-65
2021/12/18 00:43:13;;;;;;;47.28;24.10;;;0.60;99.90;;;;;;5016768;28;19929;-66
2021/12/18 00:45:40;;;;;;;46.85;24.95;;;0.60;99.90;;;;;;5016720;28;20037;-66
2021/12/18 00:48:06;;;;;;;;;;;0.60;99.90;;;;;;5017679;28;20080;-66
2021/12/18 00:50:33;;;;;;;51.50;26.83;;;0.60;99.90;;;;;;5016643;28;19925;-66
2021/12/18 00:52:59;;;;;;;;;;;0.60;99.90;;;;;;5015905;28;20077;-66
2021/12/18 00:55:26;;;;;;;56.72;27.80;;;0.60;99.90;;;;;;5016955;28;19983;-66
2021/12/18 00:57:53;;;;;;;;;;;0.50;99.90;;;;;;5017271;28;20469;-66
2021/12/18 01:00:24;;;;;;;48.50;24.80;;;0.60;99.90;;;;;;5016738;28;19986;-66
2021/12/18 01:02:56;;;;;;;50.75;25.48;;;0.60;99.90;;;;;;5015907;28;20045;-66
2021/12/18 01:05:23;;;;;;;50.25;27.33;;;0.50;99.90;;;;;;5016753;28;20072;-66
2021/12/18 01:07:50;;;;;;;50.95;26.48;;;0.50;99.90;;;;;;5015560;28;20095;-66
2021/12/18 01:12:55;;;;;;;58.80;29.40;;;0.40;99.90;;;;;;5017257;28;20049;-66
2021/12/18 01:15:35;;;;;;;59.22;30.13;;;0.40;99.90;;;;;;5017066;28;20057;-66
2021/12/18 01:23:34;;;;;;;52.38;27.63;;;0.30;99.90;;;;;;5013080;28;20096;-66
2021/12/18 01:26:03;;;;;;;51.50;28.55;;;0.40;99.90;;;;;;5015918;28;20513;-65
2021/12/18 01:28:31;;;;;;;51.42;27.40;;;0.30;99.90;;;;;;5017132;28;20072;-66
2021/12/18 01:30:59;;;;;;;58.95;29.80;;;0.30;99.90;;;;;;5014653;28;20045;-65
2021/12/18 01:33:26;;;;;;;55.13;26.60;;;0.30;99.90;;;;;;5016427;28;20085;-65
2021/12/18 01:35:53;;;;;;;47.15;24.80;;;0.30;99.90;;;;;;5016307;28;20128;-66
2021/12/18 01:38:24;;;;;;;47.83;26.55;;;0.30;99.90;;;;;;5014613;28;20104;-65
2021/12/18 01:40:51;;;;;;;51.65;26.48;;;0.30;99.90;;;;;;5015180;28;20069;-65
2021/12/18 01:53:52;;;;;;;53.10;26.70;;;0.30;99.90;;;;;;5014808;28;20045;-66
2021/12/18 01:56:20;;;;;;;49.42;25.48;;;0.30;99.90;;;;;;5015627;28;20055;-66
2021/12/18 01:58:47;;;;;;;57.40;29.77;;;0.30;99.90;;;;;;5016010;28;20142;-66
2021/12/18 02:01:17;;;;;;;57.08;29.60;;;0.20;99.90;;;;;;5015032;28;20559;-66
2021/12/18 02:03:45;;;;;;;53.60;26.55;;;0.20;99.90;;;;;;5016318;28;20124;-66
2021/12/18 02:06:12;;;;;;;46.67;26.23;;;0.20;99.90;;;;;;5016042;28;20574;-66
2021/12/18 02:08:39;;;;;;;53.65;28.02;;;0.20;99.90;;;;;;5014001;28;20041;-66
2021/12/18 02:11:16;;;;;;;52.50;26.55;;;0.20;99.90;;;;;;5014759;28;20107;-66
2021/12/18 02:21:48;;;;;;;47.58;25.30;;;0.20;99.90;;;;;;5015944;28;20418;-66
2021/12/18 02:24:15;;;;;;;;;;;0.10;99.90;;;;;;5012210;28;20065;-66
2021/12/18 02:26:42;;;;;;;50.88;25.40;;;0.10;99.90;;;;;;5016328;28;19925;-66
2021/12/18 02:29:13;;;;;;;52.58;26.02;;;0.20;99.90;;;;;;5015150;28;20049;-66
2021/12/18 02:31:41;;;;;;;53.95;27.15;;;0.10;99.90;;;;;;5016644;28;20084;-67
2021/12/18 02:34:23;;;;;;;54.72;27.95;;;0.10;99.90;;;;;;5015622;28;20072;-66
2021/12/18 02:36:50;;;;;;;57.58;27.55;;;0.10;99.90;;;;;;5013932;28;20068;-66
2021/12/18 02:39:35;;;;;;;52.28;26.55;;;0.10;99.90;;;;;;4995082;28;20515;-66
2021/12/18 02:42:17;;;;;;;55.42;28.67;;;0.10;99.90;;;;;;5007716;28;20371;-66
2021/12/18 02:44:46;;;;;;;56.03;27.73;;;0.10;99.90;;;;;;5014766;28;20073;-66
2021/12/18 02:47:13;;;;;;;;;;;0.10;99.90;;;;;;5015455;28;20137;-66
2021/12/18 02:49:49;;;;;;;59.75;27.98;;;0.10;99.90;;;;;;5014354;28;19929;-66
2021/12/18 02:52:25;;;;;;;64.07;33.60;;;0.00;99.90;;;;;;5013927;28;20044;-67
2021/12/18 02:54:52;;;;;;;63.95;30.08;;;0.00;99.90;;;;;;5014033;28;20045;-66
2021/12/18 02:57:19;;;;;;;;;;;0.00;99.90;;;;;;5015550;28;20053;-66
2021/12/18 02:59:48;;;;;;;59.90;28.92;;;0.00;99.90;;;;;;5013986;28;19932;-66
2021/12/18 03:02:17;;;;;;;54.70;26.52;;;0.00;99.90;;;;;;5014871;28;20103;-66
2021/12/18 03:04:48;;;;;;;61.75;30.60;;;0.00;99.90;;;;;;5014917;28;20045;-66
2021/12/18 03:07:18;;;;;;;64.90;31.30;;;0.00;99.90;;;;;;5014478;28;20497;-66
2021/12/18 03:26:25;;;;;;;69.68;35.92;;;0.10;99.90;;;;;;4991093;28;20536;-66
2021/12/18 03:28:52;;;;;;;;;;;0.10;99.90;;;;;;5009319;28;20061;-65
2021/12/18 03:31:18;;;;;;;76.43;39.53;;;0.20;99.90;;;;;;5013986;28;19924;-65
2021/12/18 03:33:45;;;;;;;;;;;0.20;99.90;;;;;;5015270;28;20825;-64
2021/12/18 03:36:12;;;;;;;76.70;38.78;;;0.20;99.90;;;;;;5015012;28;19979;-65
2021/12/18 03:38:39;;;;;;;;;;;0.30;99.90;;;;;;5013411;28;20351;-65
2021/12/18 03:41:05;;;;;;;76.85;39.47;;;0.30;99.90;;;;;;5013679;28;20116;-65
2021/12/18 03:43:32;;;;;;;;;;;0.30;99.90;;;;;;5013325;28;20045;-65
2021/12/18 03:45:59;;;;;;;77.85;39.95;;;0.30;99.90;;;;;;5013841;28;19968;-65
2021/12/18 03:48:25;;;;;;;;;;;0.30;99.90;;;;;;5014002;28;20041;-65
2021/12/18 03:50:53;;;;;;;90.65;43.85;;;0.30;99.90;;;;;;5013270;28;19971;-65
2021/12/18 03:53:20;;;;;;;82.03;43.17;;;0.40;99.90;;;;;;5012575;28;20053;-65
2021/12/18 03:55:46;;;;;;;85.97;43.78;;;0.40;99.90;;;;;;5014279;28;20460;-65
2021/12/18 03:58:13;;;;;;;82.30;42.25;;;0.40;99.90;;;;;;5013689;28;20114;-65
2021/12/18 04:00:40;;;;;;;80.43;40.47;;;0.40;99.90;;;;;;5009920;28;20049;-65
2021/12/18 04:03:07;;;;;;;84.00;44.33;;;0.40;99.90;;;;;;4994255;28;21042;-65
2021/12/18 04:05:35;;;;;;;80.55;41.78;;;0.30;99.90;;;;;;4993300;28;20129;-64
2021/12/18 04:08:11;;;;;;;88.82;46.65;;;0.40;99.90;;;;;;4992472;28;20774;-65
2021/12/18 04:10:39;;;;;;;88.03;44.53;;;0.30;99.90;;;;;;4993194;28;20045;-64
2021/12/18 04:13:08;;;;;;;83.50;43.92;;;0.30;99.90;;;;;;4994192;28;20042;-65
2021/12/18 04:15:36;;;;;;;84.90;42.03;;;0.40;99.90;;;;;;4992616;28;20125;-65
2021/12/18 04:18:03;;;;;;;90.53;45.03;;;0.40;99.90;;;;;;5008987;28;20180;-65
2021/12/18 04:20:31;;;;;;;82.45;41.92;;;0.30;99.90;;;;;;4990906;28;20469;-65
2021/12/18 04:22:57;;;;;;;87.88;43.80;;;0.30;99.90;;;;;;5008626;28;20057;-65
2021/12/18 04:25:24;;;;;;;;;;;0.30;99.90;;;;;;5013767;28;20152;-65
2021/12/18 04:27:52;;;;;;;73.45;38.85;;;0.40;99.90;;;;;;5013349;28;20228;-65
2021/12/18 04:30:19;;;;;;;79.28;41.03;;;0.30;99.90;;;;;;5013001;28;20088;-65
2021/12/18 04:32:46;;;;;;;89.72;44.75;;;0.30;99.90;;;;;;5013038;28;20053;-65
2021/12/18 04:35:14;;;;;;;90.35;43.97;;;0.30;99.90;;;;;;5013551;28;20136;-65
2021/12/18 04:37:41;;;;;;;88.65;42.60;;;0.30;99.90;;;;;;5012669;28;20297;-65
2021/12/18 04:40:08;;;;;;;79.40;41.38;;;0.30;99.90;;;;;;5011469;28;20119;-65
2021/12/18 04:42:35;;;;;;;79.32;43.08;;;0.30;99.90;;;;;;5012077;28;20307;-65
2021/12/18 04:45:03;;;;;;;87.90;44.17;;;0.30;99.90;;;;;;5012567;28;20445;-65
2021/12/18 04:47:30;;;;;;;83.60;41.15;;;0.30;99.90;;;;;;5013357;28;20615;-65
2021/12/18 04:49:57;;;;;;;81.30;40.92;;;0.30;99.90;;;;;;5011171;28;20567;-65
2021/12/18 04:52:24;;;;;;;;;;;0.30;99.90;;;;;;5015086;28;20073;-65
2021/12/18 04:54:51;;;;;;;81.18;40.67;;;0.30;99.90;;;;;;5012880;28;19979;-65
2021/12/18 04:57:18;;;;;;;82.95;40.55;;;0.20;99.90;;;;;;5015013;28;20677;-66
2021/12/18 04:59:45;;;;;;;77.18;39.83;;;0.30;99.90;;;;;;5013364;28;20052;-66
2021/12/18 05:02:15;;;;;;;;;;;0.20;99.90;;;;;;5014718;28;20421;-66
2021/12/18 05:04:42;;;;;;;79.93;40.42;;;0.20;99.90;;;;;;5012290;28;19925;-66
2021/12/18 05:07:10;;;;;;;80.40;40.70;;;0.30;99.90;;;;;;5012893;28;20617;-66
2021/12/18 05:09:41;;;;;;;83.57;42.97;;;0.20;99.90;;;;;;5011436;28;20045;-66
2021/12/18 05:12:09;;;;;;;79.93;39.47;;;0.20;99.90;;;;;;5012431;28;20369;-66
2021/12/18 05:14:37;;;;;;;88.38;42.63;;;0.20;99.90;;;;;;5012485;28;21196;-66
2021/12/18 05:17:03;;;;;;;72.95;37.35;;;0.20;99.90;;;;;;5027476;28;20531;-66
2021/12/18 05:19:30;;;;;;;;;;;0.20;99.90;;;;;;5012773;28;20053;-66
2021/12/18 05:21:57;;;;;;;72.18;37.30;;;0.20;99.90;;;;;;5015305;28;20006;-66
2021/12/18 05:24:23;;;;;;;;;;;0.20;99.90;;;;;;5015440;28;20210;-65
2021/12/18 05:26:50;;;;;;;77.90;37.50;;;0.20;99.90;;;;;;5016229;28;20018;-66
2021/12/18 05:29:17;;;;;;;;;;;0.10;99.90;;;;;;5016360;28;20569;-66
2021/12/18 05:31:45;;;;;;;80.90;39.13;;;0.10;99.90;;;;;;5016925;28;19932;-66
2021/12/18 05:34:20;;;;;;;75.93;38.03;;;0.10;99.90;;;;;;5016142;28;20076;-66
2021/12/18 05:39:23;;;;;;;76.88;38.78;;;0.10;99.90;;;;;;5015384;28;20054;-66
2021/12/18 05:41:51;;;;;;;66.57;33.45;;;0.10;99.90;;;;;;5015388;28;20045;-66
2021/12/18 05:44:20;;;;;;;72.05;34.80;;;0.10;99.90;;;;;;5016780;28;20049;-66
2021/12/18 05:46:47;;;;;;;74.00;38.33;;;0.10;99.90;;;;;;5016905;28;20045;-66
2021/12/18 05:49:15;;;;;;;85.50;41.90;;;0.00;99.90;;;;;;5016135;28;20057;-65
2021/12/18 05:51:45;;;;;;;69.15;34.97;;;0.00;99.90;;;;;;5016093;28;20041;-66
2021/12/18 05:54:13;;;;;;;59.60;29.73;;;0.00;99.90;;;;;;5014622;28;20354;-65
2021/12/18 05:56:40;;;;;;;64.93;32.10;;;0.00;99.90;;;;;;5017009;28;20773;-65
2021/12/18 05:59:07;;;;;;;57.47;29.08;;;0.00;99.90;;;;;;5013010;28;20328;-65
2021/12/18 06:01:34;;;;;;;56.20;29.75;;;-0.10;99.90;;;;;;5016656;28;20389;-65
2021/12/18 06:04:01;;;;;;;61.58;31.00;;;-0.10;99.90;;;;;;5014542;28;20057;-65
2021/12/18 06:06:30;;;;;;;65.07;31.33;;;-0.20;99.90;;;;;;5015656;28;20776;-66
2021/12/18 06:08:57;;;;;;;62.90;31.77;;;-0.20;99.90;;;;;;5013907;28;20038;-65
2021/12/18 06:11:27;;;;;;;60.13;30.40;;;-0.20;99.90;;;;;;5014692;28;20053;-65
2021/12/18 06:13:54;;;;;;;64.30;31.15;;;-0.20;99.90;;;;;;5015386;28;20745;-65
2021/12/18 06:16:22;;;;;;;60.42;30.23;;;-0.30;99.90;;;;;;5015213;28;20053;-65
2021/12/18 06:18:51;;;;;;;61.63;31.33;;;-0.30;99.90;;;;;;5014920;28;20045;-65
2021/12/18 06:21:19;;;;;;;64.20;31.98;;;-0.30;99.90;;;;;;5014378;28;20182;-65
2021/12/18 06:23:49;;;;;;;67.75;34.08;;;-0.30;99.90;;;;;;4995418;28;20056;-65
2021/12/18 06:26:17;;;;;;;63.75;32.65;;;-0.30;99.90;;;;;;4995516;28;20042;-65
2021/12/18 06:28:44;;;;;;;67.22;31.50;;;-0.30;99.90;;;;;;4995915;28;20104;-65
2021/12/18 06:31:33;;;;;;;68.85;32.92;;;-0.30;99.90;;;;;;4995656;28;20097;-65
2021/12/18 06:34:00;;;;;;;68.88;32.65;;;-0.30;99.90;;;;;;4994110;28;20264;-65
2021/12/18 06:36:27;;;;;;;;;;;-0.40;99.90;;;;;;4996452;28;20611;-65
2021/12/18 06:38:54;;;;;;;60.33;30.60;;;-0.40;99.90;;;;;;4993806;28;19971;-65
2021/12/18 06:41:20;;;;;;;61.90;31.58;;;-0.40;99.90;;;;;;4994383;28;20057;-65
2021/12/18 06:43:47;;;;;;;62.00;30.60;;;-0.40;99.90;;;;;;4995780;28;20061;-65
2021/12/18 06:46:14;;;;;;;;;;;-0.40;99.90;;;;;;4995466;28;20038;-65
2021/12/18 06:48:41;;;;;;;62.00;30.45;;;-0.40;99.90;;;;;;5002449;28;20033;-65
2021/12/18 06:51:07;;;;;;;;;;;-0.40;99.90;;;;;;5013873;28;20045;-65
2021/12/18 06:53:34;;;;;;;65.13;30.95;;;-0.40;99.90;;;;;;5012127;28;20120;-65
2021/12/18 06:56:03;;;;;;;67.00;33.90;;;-0.40;99.90;;;;;;5013904;28;20045;-65
2021/12/18 06:58:30;;;;;;;71.60;33.83;;;-0.40;99.90;;;;;;5013288;28;20749;-65
2021/12/18 07:00:57;;;;;;;;;;;-0.40;99.90;;;;;;5014922;28;20379;-65
2021/12/18 07:03:25;;;;;;;69.90;31.58;;;-0.50;99.90;;;;;;5013432;28;19932;-58
2021/12/18 07:05:51;;;;;;;70.93;33.83;;;-0.50;99.90;;;;;;5015380;28;20237;-58
2021/12/18 07:08:18;;;;;;;70.93;33.15;;;-0.50;99.90;;;;;;5013792;28;20550;-58
2021/12/18 07:10:45;;;;;;;;;;;-0.50;99.90;;;;;;5013463;28;20314;-58
2021/12/18 07:13:12;;;;;;;66.00;30.15;;;-0.50;99.90;;;;;;5013940;28;19979;-59
2021/12/18 07:15:39;;;;;;;74.97;33.95;;;-0.50;99.90;;;;;;5014745;28;20041;-58
2021/12/18 07:18:06;;;;;;;65.78;32.53;;;-0.50;99.90;;;;;;5014225;28;20131;-59
2021/12/18 07:20:33;;;;;;;71.00;33.20;;;-0.50;99.90;;;;;;5012933;28;20548;-59
2021/12/18 07:23:00;;;;;;;71.82;34.40;;;-0.50;99.90;;;;;;5014670;28;20748;-59
2021/12/18 07:25:28;;;;;;;78.85;36.22;;;-0.40;99.90;;;;;;5011815;28;20325;-59
2021/12/18 07:27:56;;;;;;;69.22;33.97;;;-0.40;99.90;;;;;;5014955;28;20095;-59
2021/12/18 07:30:23;;;;;;;69.00;33.10;;;-0.40;99.90;;;;;;5013052;28;20037;-59
2021/12/18 07:32:50;;;;;;;72.07;35.42;;;-0.40;99.90;;;;;;5013735;28;20402;-59
2021/12/18 07:35:18;;;;;;;66.68;33.45;;;-0.50;99.90;;;;;;5013872;28;20159;-59
2021/12/18 07:37:45;;;;;;;69.88;33.80;;;-0.50;99.90;;;;;;5014312;28;20441;-59
2021/12/18 07:40:12;;;;;;;74.38;34.72;;;-0.50;99.90;;;;;;5012214;28;20528;-58
2021/12/18 07:42:40;;;;;;;81.03;35.15;;;-0.50;99.90;;;;;;5010927;28;20053;-59
2021/12/18 07:45:08;;;;;;;65.25;30.58;;;-0.50;99.90;;;;;;5014379;28;20075;-60
2021/12/18 07:47:34;;;;;;;76.78;35.53;;;-0.50;99.90;;;;;;5013500;28;20049;-59
2021/12/18 07:50:07;;;;;;;;;;;-0.50;99.90;;;;;;5013440;28;20465;-59
2021/12/18 07:52:34;;;;;;;69.90;33.40;;;-0.50;99.90;;;;;;5013740;28;19924;-62
2021/12/18 07:55:01;;;;;;;71.43;33.85;;;-0.50;99.90;;;;;;5011706;28;20068;-62
2021/12/18 07:57:33;;;;;;;65.82;32.15;;;-0.50;99.90;;;;;;5012067;28;20508;-62
2021/12/18 08:00:00;;;;;;;68.95;31.88;;;-0.50;99.90;;;;;;5012250;28;20073;-61
2021/12/18 08:02:27;;;;;;;72.43;32.58;;;-0.60;99.90;;;;;;5011474;28;20722;-57
2021/12/18 08:04:54;;;;;;;;;;;-0.60;99.90;;;;;;5012706;28;20084;-58
2021/12/18 08:07:20;;;;;;;65.53;31.05;;;-0.60;99.90;;;;;;5013502;28;20020;-57
2021/12/18 08:09:47;;;;;;;;;;;-0.60;99.90;;;;;;5022909;28;20041;-55
2021/12/18 08:12:14;;;;;;;71.68;30.73;;;-0.60;99.90;;;;;;5035255;28;19971;-57
2021/12/18 08:14:40;;;;;;;;;;;-0.60;99.90;;;;;;5037419;28;20059;-57
2021/12/18 08:17:07;;;;;;;68.55;31.73;;;-0.60;99.90;;;;;;5026591;28;20467;-58
2021/12/18 08:19:34;;;;;;;65.20;30.90;;;-0.60;99.90;;;;;;5000503;28;20085;-56
2021/12/18 08:22:01;;;;;;;67.25;32.50;;;-0.60;99.90;;;;;;5004619;28;20053;-59
2021/12/18 08:24:28;;;;;;;65.10;31.13;;;-0.60;99.90;;;;;;5016604;28;20045;-61
2021/12/18 08:26:55;;;;;;;66.82;32.53;;;-0.60;99.90;;;;;;5017367;28;20045;-61
2021/12/18 08:29:22;;;;;;;60.72;30.02;;;-0.70;99.90;;;;;;5016108;28;20103;-61
2021/12/18 08:31:51;;;;;;;;;;;-0.70;99.90;;;;;;5017033;28;20129;-61
2021/12/18 08:34:22;;;;;;;64.10;30.30;;;-0.70;99.90;;;;;;5015215;28;19991;-61
2021/12/18 08:36:49;;;;;;;64.22;29.90;;;-0.70;99.90;;;;;;5016680;28;20050;-64
2021/12/18 08:39:17;;;;;;;64.25;28.35;;;-0.70;99.90;;;;;;5015528;28;20583;-59
2021/12/18 08:41:45;;;;;;;64.40;30.40;;;-0.60;99.90;;;;;;5015462;28;20034;-59
2021/12/18 08:44:13;;;;;;;61.90;28.90;;;-0.60;99.90;;;;;;5015925;28;20545;-58
2021/12/18 08:46:40;;;;;;;68.07;30.52;;;-0.70;99.90;;;;;;5015961;28;20559;-59
2021/12/18 08:49:07;;;;;;;60.70;30.92;;;-0.60;99.90;;;;;;5014664;28;20752;-59
2021/12/18 08:51:35;;;;;;;;;;;-0.60;99.90;;;;;;5016492;28;20042;-59
2021/12/18 08:54:03;;;;;;;69.88;32.75;;;-0.60;99.90;;;;;;5015255;28;20031;-58
2021/12/18 08:56:30;;;;;;;63.45;30.63;;;-0.60;99.90;;;;;;5020608;28;20525;-59
2021/12/18 08:58:58;;;;;;;;;;;-0.60;99.90;;;;;;5021288;28;20316;-59
2021/12/18 09:01:26;;;;;;;65.88;29.05;;;-0.60;99.90;;;;;;5019954;28;20125;-58
2021/12/18 09:03:53;;;;;;;65.13;28.33;;;-0.60;99.90;;;;;;5019588;28;20155;-61
2021/12/18 09:06:21;;;;;;;71.07;32.83;;;-0.60;99.90;;;;;;5020509;28;20056;-61
2021/12/18 09:08:48;;;;;;;71.07;32.38;;;-0.60;99.90;;;;;;5020748;28;20054;-61
2021/12/18 09:11:15;;;;;;;67.78;31.00;;;-0.60;99.90;;;;;;5020308;28;20049;-61
2021/12/18 09:13:41;;;;;;;68.05;33.40;;;-0.60;99.90;;;;;;5018344;28;20617;-61
2021/12/18 09:16:08;;;;;;;72.82;33.22;;;-0.60;99.90;;;;;;5019518;28;20053;-61
2021/12/18 09:18:35;;;;;;;62.30;29.67;;;-0.60;99.90;;;;;;5013582;28;20050;-60
2021/12/18 09:21:02;;;;;;;;;;;-0.50;99.90;;;;;;5000673;28;20053;-60
2021/12/18 09:23:29;;;;;;;63.35;30.65;;;-0.50;99.90;;;;;;5019430;28;19983;-61
2021/12/18 09:25:56;;;;;;;70.50;32.03;;;-0.50;99.90;;;;;;5018725;28;20288;-61
2021/12/18 09:28:23;;;;;;;70.18;33.47;;;-0.40;99.90;;;;;;5019842;28;20430;-61
2021/12/18 09:30:49;;;;;;;71.45;33.53;;;-0.40;99.90;;;;;;5018777;28;20041;-60
2021/12/18 09:33:18;;;;;;;;;;;-0.40;99.90;;;;;;5020403;28;20329;-60
2021/12/18 09:35:45;;;;;;;75.40;36.58;;;-0.30;99.90;;;;;;5017947;28;19921;-60
2021/12/18 09:38:12;;;;;;;73.10;34.15;;;-0.30;99.90;;;;;;5018247;28;20291;-60
2021/12/18 09:40:40;;;;;;;70.32;33.75;;;-0.30;99.90;;;;;;5018848;28;20057;-58
2021/12/18 09:43:06;;;;;;;72.72;34.10;;;-0.20;99.90;;;;;;5018861;28;20107;-58
2021/12/18 09:45:36;;;;;;;63.70;33.33;;;-0.20;99.90;;;;;;5017668;28;20436;-59
2021/12/18 09:48:05;;;;;;;67.97;34.35;;;-0.20;99.90;;;;;;5018419;28;20099;-58
2021/12/18 09:50:36;;;;;;;76.82;36.38;;;-0.10;99.90;;;;;;5018916;28;20589;-59
2021/12/18 09:53:05;;;;;;;69.40;35.40;;;-0.10;99.90;;;;;;5018343;28;20442;-61
2021/12/18 09:55:32;;;;;;;71.70;35.60;;;0.00;99.90;;;;;;5019074;28;20505;-61
2021/12/18 09:57:59;;;;;;;74.60;36.90;;;0.00;99.90;;;;;;5018814;28;20458;-58
2021/12/18 10:00:26;;;;;;;;;;;0.00;99.90;;;;;;5019305;28;20065;-67
2021/12/18 10:02:54;;;;;;;68.18;34.20;;;0.00;99.90;;;;;;5018577;28;19971;-66
2021/12/18 10:05:33;;;;;;;74.35;35.15;;;0.00;99.90;;;;;;5018969;28;20553;-57
2021/12/18 10:08:17;;;;;;;66.50;33.65;;;0.00;99.90;;;;;;5020537;28;20057;-56
2021/12/18 10:11:08;;;;;;;72.88;33.50;;;0.10;99.90;;;;;;5018521;28;20041;-59
2021/12/18 10:13:53;;;;;;;74.70;36.58;;;0.10;99.90;;;;;;5019311;28;20045;-60
2021/12/18 10:16:22;;;;;;;76.57;39.53;;;0.10;99.90;;;;;;5016263;28;20560;-61
2021/12/18 10:18:50;;;;;;;73.85;35.72;;;0.20;99.90;;;;;;5010419;28;20054;-60
2021/12/18 10:21:20;;;;;;;71.72;35.70;;;0.20;99.90;;;;;;5000975;28;20074;-62
2021/12/18 10:23:49;;;;;;;67.88;35.30;;;0.20;99.90;;;;;;5029386;28;20049;-62
2021/12/18 10:26:36;;;;;;;69.80;34.75;;;0.20;99.90;;;;;;4980650;28;20102;-62
2021/12/18 10:29:06;;;;;;;70.68;34.17;;;0.20;99.90;;;;;;4998003;28;20058;-62
2021/12/18 10:31:46;;;;;;;68.68;34.40;;;0.20;99.90;;;;;;4998222;28;20054;-62
2021/12/18 10:34:25;;;;;;;67.43;33.83;;;0.30;99.90;;;;;;4998390;28;20037;-62
2021/12/18 10:37:20;;;;;;;65.40;32.55;;;0.30;99.90;;;;;;4998626;28;20088;-62
2021/12/18 10:39:50;;;;;;;70.05;33.53;;;0.20;99.90;;;;;;4997665;28;20046;-62
2021/12/18 10:42:29;;;;;;;64.72;32.65;;;0.30;99.90;;;;;;5005634;28;20049;-62
2021/12/18 10:45:13;;;;;;;73.85;36.90;;;0.30;99.90;;;;;;5017537;28;20111;-62
2021/12/18 10:48:08;;;;;;;77.45;37.58;;;0.30;99.90;;;;;;5018169;28;20069;-62
2021/12/18 10:50:53;;;;;;;71.72;35.55;;;0.30;99.90;;;;;;4995867;28;20445;-62
2021/12/18 10:53:23;;;;;;;67.43;35.00;;;0.30;99.90;;;;;;4996368;28;20042;-62
2021/12/18 10:55:54;;;;;;;74.78;36.13;;;0.30;99.90;;;;;;4997972;28;20553;-62
2021/12/18 10:58:25;;;;;;;73.65;36.45;;;0.20;99.90;;;;;;4999107;28;20046;-61
2021/12/18 11:01:12;;;;;;;71.53;34.78;;;0.30;99.90;;;;;;4996919;28;20034;-61
2021/12/18 11:03:46;;;;;;;;;;;0.20;99.90;;;;;;4998322;28;20050;-62
2021/12/18 11:06:20;;;;;;;75.75;36.95;;;0.30;99.90;;;;;;4997492;28;20015;-62
2021/12/18 11:09:10;;;;;;;70.47;34.67;;;0.30;99.90;;;;;;4997878;28;20516;-61
2021/12/18 11:14:13;;;;;;;66.53;34.97;;;0.30;99.90;;;;;;4998859;28;20048;-62
2021/12/18 11:16:44;;;;;;;66.90;34.17;;;0.30;99.90;;;;;;5003644;28;20049;-61
2021/12/18 11:19:14;;;;;;;65.40;33.30;;;0.30;99.90;;;;;;5006630;28;20112;-62
2021/12/18 11:21:43;;;;;;;68.05;33.40;;;0.30;99.90;;;;;;5004037;28;20050;-62
2021/12/18 11:24:11;;;;;;;68.80;35.08;;;0.30;99.90;;;;;;5017647;28;20073;-62
2021/12/18 11:27:01;;;;;;;61.75;32.70;;;0.30;99.90;;;;;;5018945;28;20372;-61
2021/12/18 11:29:35;;;;;;;68.07;34.38;;;0.40;99.90;;;;;;5018029;28;20057;-62
2021/12/18 11:32:02;;;;;;;65.95;32.58;;;0.40;99.90;;;;;;5018132;28;20399;-60
2021/12/18 11:34:29;;;;;;;65.78;35.10;;;0.40;99.90;;;;;;5016406;28;20053;-61
2021/12/18 11:36:59;;;;;;;58.20;31.50;;;0.40;99.90;;;;;;5018028;28;20120;-61
2021/12/18 11:39:29;;;;;;;66.25;34.88;;;0.40;99.90;;;;;;5017083;28;20049;-62
2021/12/18 11:41:56;;;;;;;67.00;34.63;;;0.40;99.90;;;;;;5017306;28;20045;-62
2021/12/18 11:44:36;;;;;;;58.58;30.90;;;0.40;99.90;;;;;;5016682;28;20130;-62
2021/12/18 11:47:37;;;;;;;67.10;32.30;;;0.40;99.90;;;;;;5016512;28;20319;-61
2021/12/18 11:50:19;;;;;;;64.88;33.40;;;0.40;99.90;;;;;;5015029;28;20042;-62
2021/12/18 11:52:55;;;;;;;63.75;32.03;;;0.50;99.90;;;;;;5016068;28;20044;-62
2021/12/18 11:55:26;;;;;;;71.93;36.67;;;0.50;99.90;;;;;;5017234;28;20041;-62
2021/12/18 11:57:58;;;;;;;65.18;33.38;;;0.50;99.90;;;;;;5017142;28;20046;-62
2021/12/18 12:00:45;;;;;;;68.53;33.78;;;0.50;99.90;;;;;;5015717;28;20808;-62
2021/12/18 12:03:36;;;;;;;67.83;35.53;;;0.40;99.90;;;;;;5016797;28;20048;-62
2021/12/18 12:06:28;;;;;;;63.70;34.15;;;0.40;99.90;;;;;;5016206;28;20057;-61
2021/12/18 12:09:23;;;;;;;62.03;31.15;;;0.40;99.90;;;;;;5014950;28;20064;-61
2021/12/18 12:12:08;;;;;;;57.25;29.75;;;0.40;99.90;;;;;;5016325;28;20050;-62
2021/12/18 12:14:42;;;;;;;61.00;29.52;;;0.40;99.90;;;;;;5015710;28;20050;-62
2021/12/18 12:17:27;;;;;;;53.40;27.33;;;0.30;99.90;;;;;;5017843;28;20123;-62
2021/12/18 12:20:05;;;;;;;49.78;26.92;;;0.30;99.90;;;;;;5016569;28;20052;-61
2021/12/18 12:22:37;;;;;;;52.00;27.15;;;0.30;99.90;;;;;;5017048;28;20300;-62
2021/12/18 12:25:13;;;;;;;54.10;29.50;;;0.30;99.90;;;;;;5017151;28;20055;-62
2021/12/18 12:27:47;;;;;;;51.70;27.20;;;0.30;99.90;;;;;;5018064;28;20061;-61
2021/12/18 12:30:30;;;;;;;59.42;30.05;;;0.40;99.90;;;;;;5030635;28;20037;-61
2021/12/18 12:33:03;;;;;;;55.63;29.70;;;0.40;99.90;;;;;;5015600;28;20737;-62
2021/12/18 12:35:51;;;;;;;56.03;30.63;;;0.40;99.90;;;;;;5017073;28;20553;-61
2021/12/18 12:38:31;;;;;;;54.03;27.83;;;0.40;99.90;;;;;;5017289;28;20100;-62
2021/12/18 12:41:24;;;;;;;53.65;26.25;;;0.40;99.90;;;;;;5017133;28;20053;-61
2021/12/18 12:43:52;;;;;;;46.28;25.08;;;0.50;99.90;;;;;;4997531;28;20056;-61
2021/12/18 12:46:20;;;;;;;52.58;25.17;;;0.50;99.90;;;;;;4997605;28;20365;-62
2021/12/18 12:49:01;;;;;;;51.70;26.45;;;0.50;99.90;;;;;;5005279;28;20540;-61
2021/12/18 12:52:06;;;;;;;52.63;26.63;;;0.50;99.90;;;;;;5015983;28;20042;-62
2021/12/18 12:54:43;;;;;;;51.30;26.63;;;0.60;99.90;;;;;;5011794;28;20505;-62
2021/12/18 12:57:22;;;;;;;51.22;25.80;;;0.60;99.90;;;;;;5016205;28;20064;-61
2021/12/18 13:00:16;;;;;;;43.22;22.48;;;0.60;99.90;;;;;;5015018;28;20254;-61
2021/12/18 13:02:52;;;;;;;49.17;24.88;;;0.70;99.90;;;;;;5016290;28;20067;-61
2021/12/18 13:05:20;;;;;;;41.60;23.73;;;0.70;99.90;;;;;;5013872;28;20088;-62
2021/12/18 13:07:48;;;;;;;41.92;22.90;;;0.80;99.90;;;;;;5015639;28;20516;-62
2021/12/18 13:10:23;;;;;;;41.97;22.85;;;0.80;99.90;;;;;;5030349;28;20046;-62
2021/12/18 13:12:54;;;;;;;43.55;22.35;;;0.80;99.90;;;;;;5015819;28;20494;-61
2021/12/18 13:15:22;;;;;;;46.47;24.60;;;0.90;99.90;;;;;;5014086;28;20041;-61
2021/12/18 13:18:04;;;;;;;45.05;23.55;;;0.90;99.90;;;;;;5015529;28;20104;-62
2021/12/18 13:20:45;;;;;;;43.35;23.17;;;1.00;99.90;;;;;;4995788;28;20046;-61
2021/12/18 13:23:18;;;;;;;41.28;22.60;;;1.00;99.90;;;;;;5013533;28;20053;-61
2021/12/18 13:25:51;;;;;;;48.47;25.35;;;1.10;99.90;;;;;;5016497;28;20446;-62
2021/12/18 13:28:20;;;;;;;50.03;25.30;;;1.10;99.90;;;;;;5016813;28;20484;-61
2021/12/18 13:30:48;;;;;;;52.03;24.58;;;1.10;99.90;;;;;;5016965;28;20029;-61
2021/12/18 13:33:21;;;;;;;50.25;26.50;;;1.20;99.90;;;;;;5017173;28;20099;-61
2021/12/18 13:35:59;;;;;;;40.85;21.42;;;1.20;99.90;;;;;;5016809;28;20754;-61
2021/12/18 13:38:37;;;;;;;44.20;24.17;;;1.20;99.90;;;;;;5017279;28;20045;-62
2021/12/18 13:41:11;;;;;;;41.38;21.67;;;1.20;99.90;;;;;;5014989;28;20523;-60
2021/12/18 13:43:38;;;;;;;44.08;24.77;;;1.30;99.90;;;;;;5019141;28;20380;-61
2021/12/18 13:46:08;;;;;;;47.10;24.35;;;1.30;99.90;;;;;;5019415;28;20041;-60
2021/12/18 13:48:41;;;;;;;45.20;23.92;;;1.40;99.90;;;;;;5019762;28;20038;-62
2021/12/18 13:51:11;;;;;;;42.50;23.67;;;1.40;99.90;;;;;;5018514;28;20045;-61